Guarulhos - Governador André Franco Montoro International Airport
SBGR : now visible

Airfield :











YOU CAN JOIN US ON...

 
LOGIN :

Register | Disclaimer

   EN    FR    IT 

 









Legend :    VFR   Marginal VFR   IFR   Intensive IFR   Very Intensive IFR
Visi :
Ceiling :
>= 8 km
>= 3000ft
5 to 8 km
1000 to 3000 ft
1500m to 5 km
500 to 1000 ft
800 to 1500m
200 to 500 ft
< 800m
< 200 ft
Symbols :   Thunderstorms  Fog  Heavy snow  Heavy precipitations  Wind > 20 kt







- Airport Elevation : 2459 ft
- IATA code : GRU


SBGR - Guarulhos - Governador André Franco Montoro International

CURRENT METAR :
  • 191500Z 32012KT 9999 SCT035 30/20 Q1015

EXPIRED METARs :
  • 191400Z 31012KT 9999 SCT030 28/20 Q1016
  • 191300Z 31012KT 9999 SCT025 26/20 Q1017
  • 191200Z 30010KT 9999 SCT025 25/21 Q1017

TAF TAF SBGR
Valid from the 19 at 12:00 until the 20 at 18:00 UTC


190900Z 1912/2018 34007KT 8000 NSC TN20/2009Z TX30/2017Z
BECMG 1913/1915 33010KT SCT040
BECMG 1917/1919 30008KT
BECMG 1919/1921 16007KT SCT025
BECMG 1921/1923 12005KT 6000 BKN013
BECMG 2000/2002 8000 SCT017
BECMG 2002/2004 07002KT NSC
PROB30 2009/2011 4000 BR BKN005
BECMG 2012/2014 34008KT FEW030
BECMG 2014/2016 33008KT SCT040 RMK PHG
SBCW FIR / South America



MET'MAP, your aeronautical weather chart ! - Copyright ORBIFLY December 2007 - Disclaimer

ORBIFLY MET'MAP TEAM :

Programming & Development : Alexandra Zaïnal
Concept & Development : Baudouin d'Aumeries
Co-Development & Prog : Marc-Olivier Méhu
Technical & hardware support : Manuel Goepfert

Contact : metmap@orbifly.com




SOURCES & CREDITS :

   NOAA       Earth
Advisory